sensor_id;sensor_type;location;lat;lon;timestamp;P1;durP1;ratioP1;P2;durP2;ratioP2
3849;SDS011;1940;51.052;13.678;2022-07-30T00:02:24;8.10;;;5.80;;
3849;SDS011;1940;51.052;13.678;2022-07-30T00:04:50;8.33;;;5.70;;
3849;SDS011;1940;51.052;13.678;2022-07-30T00:07:16;6.77;;;5.97;;
3849;SDS011;1940;51.052;13.678;2022-07-30T00:09:41;9.07;;;6.27;;
3849;SDS011;1940;51.052;13.678;2022-07-30T00:12:07;9.03;;;6.40;;
3849;SDS011;1940;51.052;13.678;2022-07-30T00:14:33;9.60;;;6.57;;
3849;SDS011;1940;51.052;13.678;2022-07-30T00:17:03;9.80;;;6.40;;
3849;SDS011;1940;51.052;13.678;2022-07-30T00:19:29;8.03;;;5.77;;
3849;SDS011;1940;51.052;13.678;2022-07-30T00:21:55;8.40;;;6.13;;
3849;SDS011;1940;51.052;13.678;2022-07-30T00:24:20;8.93;;;6.30;;
3849;SDS011;1940;51.052;13.678;2022-07-30T00:26:47;8.90;;;6.00;;
3849;SDS011;1940;51.052;13.678;2022-07-30T00:29:12;7.33;;;5.97;;
3849;SDS011;1940;51.052;13.678;2022-07-30T00:31:38;9.63;;;6.13;;
3849;SDS011;1940;51.052;13.678;2022-07-30T00:34:04;9.10;;;6.47;;
3849;SDS011;1940;51.052;13.678;2022-07-30T00:36:29;7.67;;;6.00;;
3849;SDS011;1940;51.052;13.678;2022-07-30T00:38:55;7.80;;;6.50;;
3849;SDS011;1940;51.052;13.678;2022-07-30T00:41:22;8.30;;;6.23;;
3849;SDS011;1940;51.052;13.678;2022-07-30T00:43:49;8.30;;;6.10;;
3849;SDS011;1940;51.052;13.678;2022-07-30T00:46:15;7.53;;;5.70;;
3849;SDS011;1940;51.052;13.678;2022-07-30T00:48:41;13.73;;;6.20;;
3849;SDS011;1940;51.052;13.678;2022-07-30T00:51:07;8.63;;;6.33;;
3849;SDS011;1940;51.052;13.678;2022-07-30T00:53:35;8.83;;;6.27;;
3849;SDS011;1940;51.052;13.678;2022-07-30T00:56:01;7.93;;;6.40;;
3849;SDS011;1940;51.052;13.678;2022-07-30T00:58:28;9.03;;;7.03;;
3849;SDS011;1940;51.052;13.678;2022-07-30T01:00:53;9.83;;;6.70;;
3849;SDS011;1940;51.052;13.678;2022-07-30T01:03:19;9.80;;;6.90;;
3849;SDS011;1940;51.052;13.678;2022-07-30T01:05:45;8.70;;;6.40;;
3849;SDS011;1940;51.052;13.678;2022-07-30T01:08:11;8.57;;;7.03;;
3849;SDS011;1940;51.052;13.678;2022-07-30T01:10:37;11.83;;;7.50;;
3849;SDS011;1940;51.052;13.678;2022-07-30T01:13:03;11.70;;;7.30;;
3849;SDS011;1940;51.052;13.678;2022-07-30T01:15:29;14.93;;;8.10;;
3849;SDS011;1940;51.052;13.678;2022-07-30T01:17:57;11.07;;;8.00;;
3849;SDS011;1940;51.052;13.678;2022-07-30T01:20:32;10.70;;;8.00;;
3849;SDS011;1940;51.052;13.678;2022-07-30T01:29:29;9.80;;;7.80;;
3849;SDS011;1940;51.052;13.678;2022-07-30T01:31:56;9.10;;;6.77;;
3849;SDS011;1940;51.052;13.678;2022-07-30T01:34:25;10.47;;;7.83;;
3849;SDS011;1940;51.052;13.678;2022-07-30T01:36:56;13.20;;;8.13;;
3849;SDS011;1940;51.052;13.678;2022-07-30T01:39:24;10.70;;;7.77;;
3849;SDS011;1940;51.052;13.678;2022-07-30T01:41:51;10.33;;;7.23;;
3849;SDS011;1940;51.052;13.678;2022-07-30T01:44:19;10.40;;;6.93;;
3849;SDS011;1940;51.052;13.678;2022-07-30T01:46:47;11.07;;;8.00;;
3849;SDS011;1940;51.052;13.678;2022-07-30T01:49:13;10.07;;;7.57;;
3849;SDS011;1940;51.052;13.678;2022-07-30T01:51:40;12.30;;;8.13;;
3849;SDS011;1940;51.052;13.678;2022-07-30T01:54:08;11.33;;;6.90;;
3849;SDS011;1940;51.052;13.678;2022-07-30T01:56:35;16.33;;;8.57;;
3849;SDS011;1940;51.052;13.678;2022-07-30T01:59:01;10.83;;;7.53;;
3849;SDS011;1940;51.052;13.678;2022-07-30T02:01:29;11.43;;;7.63;;
3849;SDS011;1940;51.052;13.678;2022-07-30T02:03:55;9.93;;;7.30;;
3849;SDS011;1940;51.052;13.678;2022-07-30T02:06:22;11.20;;;7.60;;
3849;SDS011;1940;51.052;13.678;2022-07-30T02:08:57;14.23;;;8.10;;
3849;SDS011;1940;51.052;13.678;2022-07-30T02:11:26;11.27;;;7.63;;
3849;SDS011;1940;51.052;13.678;2022-07-30T02:14:18;9.33;;;7.13;;
3849;SDS011;1940;51.052;13.678;2022-07-30T02:16:54;11.57;;;8.43;;
3849;SDS011;1940;51.052;13.678;2022-07-30T02:19:23;13.23;;;8.60;;
3849;SDS011;1940;51.052;13.678;2022-07-30T02:21:57;9.63;;;7.40;;
3849;SDS011;1940;51.052;13.678;2022-07-30T02:24:28;13.47;;;8.37;;
3849;SDS011;1940;51.052;13.678;2022-07-30T02:26:58;12.43;;;8.63;;
3849;SDS011;1940;51.052;13.678;2022-07-30T02:29:26;10.80;;;8.13;;
3849;SDS011;1940;51.052;13.678;2022-07-30T02:31:55;10.03;;;7.53;;
3849;SDS011;1940;51.052;13.678;2022-07-30T02:34:21;11.70;;;7.60;;
3849;SDS011;1940;51.052;13.678;2022-07-30T02:36:49;12.40;;;8.93;;
3849;SDS011;1940;51.052;13.678;2022-07-30T02:39:16;12.30;;;8.20;;
3849;SDS011;1940;51.052;13.678;2022-07-30T02:41:44;12.43;;;9.13;;
3849;SDS011;1940;51.052;13.678;2022-07-30T02:44:12;10.33;;;8.00;;
3849;SDS011;1940;51.052;13.678;2022-07-30T02:46:42;16.83;;;8.10;;
3849;SDS011;1940;51.052;13.678;2022-07-30T02:49:09;11.03;;;7.90;;
3849;SDS011;1940;51.052;13.678;2022-07-30T02:51:37;11.70;;;8.13;;
3849;SDS011;1940;51.052;13.678;2022-07-30T02:54:03;12.40;;;8.00;;
3849;SDS011;1940;51.052;13.678;2022-07-30T02:56:30;14.27;;;8.73;;
3849;SDS011;1940;51.052;13.678;2022-07-30T02:58:57;10.17;;;7.77;;
3849;SDS011;1940;51.052;13.678;2022-07-30T03:01:25;9.80;;;7.50;;
3849;SDS011;1940;51.052;13.678;2022-07-30T03:03:51;10.50;;;7.70;;
3849;SDS011;1940;51.052;13.678;2022-07-30T03:06:19;14.07;;;8.77;;
3849;SDS011;1940;51.052;13.678;2022-07-30T03:08:47;12.17;;;8.73;;
3849;SDS011;1940;51.052;13.678;2022-07-30T03:11:14;10.70;;;7.90;;
3849;SDS011;1940;51.052;13.678;2022-07-30T03:13:42;12.70;;;8.03;;
3849;SDS011;1940;51.052;13.678;2022-07-30T03:16:09;11.53;;;7.40;;
3849;SDS011;1940;51.052;13.678;2022-07-30T03:18:36;12.47;;;8.70;;
3849;SDS011;1940;51.052;13.678;2022-07-30T03:21:03;9.90;;;7.80;;
3849;SDS011;1940;51.052;13.678;2022-07-30T03:23:32;10.53;;;8.50;;
3849;SDS011;1940;51.052;13.678;2022-07-30T03:26:01;12.47;;;8.87;;
3849;SDS011;1940;51.052;13.678;2022-07-30T03:28:29;11.37;;;8.83;;
3849;SDS011;1940;51.052;13.678;2022-07-30T03:30:56;11.50;;;8.60;;
3849;SDS011;1940;51.052;13.678;2022-07-30T03:33:23;12.03;;;8.30;;
3849;SDS011;1940;51.052;13.678;2022-07-30T03:35:49;9.60;;;7.40;;
3849;SDS011;1940;51.052;13.678;2022-07-30T03:38:16;10.50;;;7.33;;
3849;SDS011;1940;51.052;13.678;2022-07-30T03:40:44;13.13;;;8.30;;
3849;SDS011;1940;51.052;13.678;2022-07-30T03:43:10;11.97;;;9.00;;
3849;SDS011;1940;51.052;13.678;2022-07-30T03:45:37;12.70;;;8.73;;
3849;SDS011;1940;51.052;13.678;2022-07-30T03:48:09;13.50;;;8.57;;
3849;SDS011;1940;51.052;13.678;2022-07-30T03:50:37;23.90;;;9.20;;
3849;SDS011;1940;51.052;13.678;2022-07-30T03:53:05;15.07;;;8.90;;
3849;SDS011;1940;51.052;13.678;2022-07-30T03:55:32;12.73;;;8.30;;
3849;SDS011;1940;51.052;13.678;2022-07-30T03:57:59;17.33;;;8.00;;
3849;SDS011;1940;51.052;13.678;2022-07-30T04:00:25;11.60;;;7.60;;
3849;SDS011;1940;51.052;13.678;2022-07-30T04:02:51;12.87;;;8.80;;
3849;SDS011;1940;51.052;13.678;2022-07-30T04:05:17;15.83;;;9.93;;
3849;SDS011;1940;51.052;13.678;2022-07-30T04:07:43;15.63;;;10.17;;
3849;SDS011;1940;51.052;13.678;2022-07-30T04:10:08;13.10;;;8.87;;
3849;SDS011;1940;51.052;13.678;2022-07-30T04:12:34;10.70;;;8.53;;
3849;SDS011;1940;51.052;13.678;2022-07-30T04:15:00;15.57;;;9.20;;
3849;SDS011;1940;51.052;13.678;2022-07-30T04:17:27;13.17;;;8.97;;
3849;SDS011;1940;51.052;13.678;2022-07-30T04:20:00;11.73;;;8.17;;
3849;SDS011;1940;51.052;13.678;2022-07-30T04:22:29;11.43;;;8.53;;
3849;SDS011;1940;51.052;13.678;2022-07-30T04:24:58;12.83;;;9.20;;
3849;SDS011;1940;51.052;13.678;2022-07-30T04:27:25;14.13;;;8.53;;
3849;SDS011;1940;51.052;13.678;2022-07-30T04:29:52;11.57;;;9.30;;
3849;SDS011;1940;51.052;13.678;2022-07-30T04:32:18;17.87;;;8.77;;
3849;SDS011;1940;51.052;13.678;2022-07-30T04:34:44;13.00;;;8.53;;
3849;SDS011;1940;51.052;13.678;2022-07-30T04:37:11;10.27;;;8.30;;
3849;SDS011;1940;51.052;13.678;2022-07-30T04:39:36;11.80;;;8.10;;
3849;SDS011;1940;51.052;13.678;2022-07-30T04:42:02;9.70;;;7.70;;
3849;SDS011;1940;51.052;13.678;2022-07-30T04:44:28;12.30;;;8.40;;
3849;SDS011;1940;51.052;13.678;2022-07-30T04:46:53;12.60;;;8.33;;
3849;SDS011;1940;51.052;13.678;2022-07-30T04:49:19;10.27;;;7.93;;
3849;SDS011;1940;51.052;13.678;2022-07-30T04:51:46;12.07;;;8.30;;
3849;SDS011;1940;51.052;13.678;2022-07-30T04:54:13;13.57;;;8.93;;
3849;SDS011;1940;51.052;13.678;2022-07-30T04:56:40;11.30;;;8.30;;
3849;SDS011;1940;51.052;13.678;2022-07-30T04:59:08;12.67;;;7.30;;
3849;SDS011;1940;51.052;13.678;2022-07-30T05:01:34;12.37;;;8.20;;
3849;SDS011;1940;51.052;13.678;2022-07-30T05:04:02;10.13;;;7.10;;
3849;SDS011;1940;51.052;13.678;2022-07-30T05:06:30;11.97;;;7.23;;
3849;SDS011;1940;51.052;13.678;2022-07-30T05:08:56;10.60;;;7.60;;
3849;SDS011;1940;51.052;13.678;2022-07-30T05:11:22;10.53;;;7.63;;
3849;SDS011;1940;51.052;13.678;2022-07-30T05:13:48;13.30;;;7.53;;
3849;SDS011;1940;51.052;13.678;2022-07-30T05:16:13;10.50;;;8.07;;
3849;SDS011;1940;51.052;13.678;2022-07-30T05:18:40;10.67;;;7.43;;
3849;SDS011;1940;51.052;13.678;2022-07-30T05:21:06;10.97;;;7.20;;
3849;SDS011;1940;51.052;13.678;2022-07-30T05:23:32;13.27;;;8.07;;
3849;SDS011;1940;51.052;13.678;2022-07-30T05:25:58;12.53;;;7.90;;
3849;SDS011;1940;51.052;13.678;2022-07-30T05:28:24;12.27;;;8.50;;
3849;SDS011;1940;51.052;13.678;2022-07-30T05:30:53;12.40;;;8.30;;
3849;SDS011;1940;51.052;13.678;2022-07-30T05:33:19;10.90;;;8.30;;
3849;SDS011;1940;51.052;13.678;2022-07-30T05:35:46;12.43;;;8.50;;
3849;SDS011;1940;51.052;13.678;2022-07-30T05:38:11;16.40;;;8.30;;
3849;SDS011;1940;51.052;13.678;2022-07-30T05:40:37;15.60;;;7.90;;
3849;SDS011;1940;51.052;13.678;2022-07-30T05:43:03;11.27;;;7.90;;
3849;SDS011;1940;51.052;13.678;2022-07-30T05:45:28;8.87;;;7.13;;
3849;SDS011;1940;51.052;13.678;2022-07-30T05:47:54;13.60;;;8.43;;
3849;SDS011;1940;51.052;13.678;2022-07-30T05:50:20;14.87;;;7.13;;
3849;SDS011;1940;51.052;13.678;2022-07-30T05:52:45;10.70;;;7.20;;
3849;SDS011;1940;51.052;13.678;2022-07-30T05:55:11;9.00;;;7.00;;
3849;SDS011;1940;51.052;13.678;2022-07-30T05:57:36;11.43;;;7.60;;
3849;SDS011;1940;51.052;13.678;2022-07-30T06:00:05;11.70;;;7.50;;
3849;SDS011;1940;51.052;13.678;2022-07-30T06:02:32;13.93;;;7.30;;
3849;SDS011;1940;51.052;13.678;2022-07-30T06:04:57;10.80;;;7.00;;
3849;SDS011;1940;51.052;13.678;2022-07-30T06:07:23;14.20;;;7.33;;
3849;SDS011;1940;51.052;13.678;2022-07-30T06:09:49;13.33;;;6.53;;
3849;SDS011;1940;51.052;13.678;2022-07-30T06:12:15;10.87;;;7.00;;
3849;SDS011;1940;51.052;13.678;2022-07-30T06:14:41;11.70;;;7.10;;
3849;SDS011;1940;51.052;13.678;2022-07-30T06:17:07;9.30;;;7.30;;
3849;SDS011;1940;51.052;13.678;2022-07-30T06:19:32;9.17;;;7.30;;
3849;SDS011;1940;51.052;13.678;2022-07-30T06:21:58;11.10;;;7.50;;
3849;SDS011;1940;51.052;13.678;2022-07-30T06:24:26;9.93;;;6.80;;
3849;SDS011;1940;51.052;13.678;2022-07-30T06:26:52;8.97;;;6.83;;
3849;SDS011;1940;51.052;13.678;2022-07-30T06:29:17;9.30;;;7.03;;
3849;SDS011;1940;51.052;13.678;2022-07-30T06:31:43;9.33;;;6.40;;
3849;SDS011;1940;51.052;13.678;2022-07-30T06:34:08;11.40;;;7.57;;
3849;SDS011;1940;51.052;13.678;2022-07-30T06:36:34;9.00;;;7.37;;
3849;SDS011;1940;51.052;13.678;2022-07-30T06:39:00;11.93;;;8.17;;
3849;SDS011;1940;51.052;13.678;2022-07-30T06:41:26;9.10;;;7.40;;
3849;SDS011;1940;51.052;13.678;2022-07-30T06:43:51;11.47;;;7.70;;
3849;SDS011;1940;51.052;13.678;2022-07-30T06:46:17;11.70;;;7.90;;
3849;SDS011;1940;51.052;13.678;2022-07-30T06:48:43;12.70;;;7.60;;
3849;SDS011;1940;51.052;13.678;2022-07-30T06:51:08;13.57;;;7.67;;
3849;SDS011;1940;51.052;13.678;2022-07-30T06:53:34;18.33;;;7.83;;
3849;SDS011;1940;51.052;13.678;2022-07-30T06:55:59;12.00;;;7.47;;
3849;SDS011;1940;51.052;13.678;2022-07-30T06:58:25;8.57;;;7.10;;
3849;SDS011;1940;51.052;13.678;2022-07-30T07:00:51;12.20;;;8.17;;
3849;SDS011;1940;51.052;13.678;2022-07-30T07:03:17;10.87;;;8.20;;
3849;SDS011;1940;51.052;13.678;2022-07-30T07:05:42;13.33;;;8.07;;
3849;SDS011;1940;51.052;13.678;2022-07-30T07:08:08;12.20;;;8.47;;
3849;SDS011;1940;51.052;13.678;2022-07-30T07:10:34;10.73;;;8.17;;
3849;SDS011;1940;51.052;13.678;2022-07-30T07:12:59;11.53;;;8.03;;
3849;SDS011;1940;51.052;13.678;2022-07-30T07:15:25;10.83;;;7.50;;
3849;SDS011;1940;51.052;13.678;2022-07-30T07:17:51;13.90;;;7.73;;
3849;SDS011;1940;51.052;13.678;2022-07-30T07:20:16;14.80;;;7.90;;
3849;SDS011;1940;51.052;13.678;2022-07-30T07:22:42;14.30;;;7.63;;
3849;SDS011;1940;51.052;13.678;2022-07-30T07:25:08;13.73;;;7.80;;
3849;SDS011;1940;51.052;13.678;2022-07-30T07:27:34;11.87;;;7.23;;
3849;SDS011;1940;51.052;13.678;2022-07-30T07:30:00;11.50;;;8.30;;
3849;SDS011;1940;51.052;13.678;2022-07-30T07:32:26;11.57;;;8.27;;
3849;SDS011;1940;51.052;13.678;2022-07-30T07:34:52;16.20;;;7.90;;
3849;SDS011;1940;51.052;13.678;2022-07-30T07:37:17;18.40;;;8.07;;
3849;SDS011;1940;51.052;13.678;2022-07-30T07:39:43;13.30;;;8.30;;
3849;SDS011;1940;51.052;13.678;2022-07-30T07:42:08;12.23;;;8.40;;
3849;SDS011;1940;51.052;13.678;2022-07-30T07:44:34;10.73;;;7.80;;
3849;SDS011;1940;51.052;13.678;2022-07-30T07:46:59;19.60;;;9.07;;
3849;SDS011;1940;51.052;13.678;2022-07-30T07:49:25;12.60;;;8.10;;
3849;SDS011;1940;51.052;13.678;2022-07-30T07:51:51;14.93;;;9.07;;
3849;SDS011;1940;51.052;13.678;2022-07-30T07:54:16;11.50;;;8.40;;
3849;SDS011;1940;51.052;13.678;2022-07-30T07:56:42;13.53;;;8.07;;
3849;SDS011;1940;51.052;13.678;2022-07-30T07:59:08;10.80;;;7.50;;
3849;SDS011;1940;51.052;13.678;2022-07-30T08:01:33;12.70;;;7.90;;
3849;SDS011;1940;51.052;13.678;2022-07-30T08:03:59;10.00;;;7.73;;
3849;SDS011;1940;51.052;13.678;2022-07-30T08:06:25;10.80;;;7.77;;
3849;SDS011;1940;51.052;13.678;2022-07-30T08:08:50;10.87;;;7.77;;
3849;SDS011;1940;51.052;13.678;2022-07-30T08:11:17;10.23;;;8.27;;
3849;SDS011;1940;51.052;13.678;2022-07-30T08:13:43;15.03;;;8.27;;
3849;SDS011;1940;51.052;13.678;2022-07-30T08:16:08;10.97;;;8.60;;
3849;SDS011;1940;51.052;13.678;2022-07-30T08:18:35;12.03;;;8.27;;
3849;SDS011;1940;51.052;13.678;2022-07-30T08:21:01;14.60;;;8.83;;
3849;SDS011;1940;51.052;13.678;2022-07-30T08:23:27;11.23;;;8.40;;
3849;SDS011;1940;51.052;13.678;2022-07-30T08:25:52;11.40;;;7.90;;
3849;SDS011;1940;51.052;13.678;2022-07-30T08:28:20;10.50;;;8.07;;
3849;SDS011;1940;51.052;13.678;2022-07-30T08:30:45;12.60;;;8.97;;
3849;SDS011;1940;51.052;13.678;2022-07-30T08:33:11;12.77;;;9.20;;
3849;SDS011;1940;51.052;13.678;2022-07-30T08:35:37;24.83;;;9.97;;
3849;SDS011;1940;51.052;13.678;2022-07-30T08:38:02;11.27;;;8.70;;
3849;SDS011;1940;51.052;13.678;2022-07-30T08:40:28;11.17;;;7.77;;
3849;SDS011;1940;51.052;13.678;2022-07-30T08:43:02;14.27;;;9.10;;
3849;SDS011;1940;51.052;13.678;2022-07-30T08:45:30;15.33;;;8.87;;
3849;SDS011;1940;51.052;13.678;2022-07-30T08:47:57;13.97;;;9.33;;
3849;SDS011;1940;51.052;13.678;2022-07-30T08:50:27;12.40;;;9.50;;
3849;SDS011;1940;51.052;13.678;2022-07-30T08:52:53;11.23;;;8.60;;
3849;SDS011;1940;51.052;13.678;2022-07-30T08:55:23;13.90;;;8.17;;
3849;SDS011;1940;51.052;13.678;2022-07-30T08:57:49;13.53;;;9.10;;
3849;SDS011;1940;51.052;13.678;2022-07-30T09:00:16;12.03;;;8.53;;
3849;SDS011;1940;51.052;13.678;2022-07-30T09:02:43;10.50;;;7.50;;
3849;SDS011;1940;51.052;13.678;2022-07-30T09:05:09;11.70;;;8.40;;
3849;SDS011;1940;51.052;13.678;2022-07-30T09:07:36;11.27;;;7.83;;
3849;SDS011;1940;51.052;13.678;2022-07-30T09:10:06;16.50;;;8.50;;
3849;SDS011;1940;51.052;13.678;2022-07-30T09:12:34;12.17;;;8.40;;
3849;SDS011;1940;51.052;13.678;2022-07-30T09:15:14;17.50;;;8.33;;
3849;SDS011;1940;51.052;13.678;2022-07-30T09:17:46;10.43;;;7.90;;
3849;SDS011;1940;51.052;13.678;2022-07-30T09:20:15;15.23;;;8.90;;
3849;SDS011;1940;51.052;13.678;2022-07-30T09:22:43;9.13;;;7.50;;
3849;SDS011;1940;51.052;13.678;2022-07-30T09:25:11;8.87;;;6.90;;
3849;SDS011;1940;51.052;13.678;2022-07-30T09:27:47;11.93;;;6.60;;
3849;SDS011;1940;51.052;13.678;2022-07-30T09:30:14;12.10;;;7.00;;
3849;SDS011;1940;51.052;13.678;2022-07-30T09:35:13;10.97;;;7.33;;
3849;SDS011;1940;51.052;13.678;2022-07-30T09:37:39;11.30;;;7.57;;
3849;SDS011;1940;51.052;13.678;2022-07-30T09:40:12;10.53;;;7.50;;
3849;SDS011;1940;51.052;13.678;2022-07-30T09:42:38;10.23;;;7.90;;
3849;SDS011;1940;51.052;13.678;2022-07-30T09:45:04;11.23;;;8.83;;
3849;SDS011;1940;51.052;13.678;2022-07-30T09:47:43;11.90;;;8.47;;
3849;SDS011;1940;51.052;13.678;2022-07-30T09:50:10;13.10;;;9.33;;
3849;SDS011;1940;51.052;13.678;2022-07-30T09:52:38;17.00;;;9.43;;
3849;SDS011;1940;51.052;13.678;2022-07-30T09:55:06;15.03;;;8.60;;
3849;SDS011;1940;51.052;13.678;2022-07-30T09:57:32;18.60;;;9.00;;
3849;SDS011;1940;51.052;13.678;2022-07-30T09:59:58;13.50;;;8.80;;
3849;SDS011;1940;51.052;13.678;2022-07-30T10:02:40;12.73;;;9.20;;
3849;SDS011;1940;51.052;13.678;2022-07-30T10:05:06;13.07;;;8.93;;
3849;SDS011;1940;51.052;13.678;2022-07-30T10:07:49;14.97;;;9.30;;
3849;SDS011;1940;51.052;13.678;2022-07-30T10:10:16;14.90;;;8.90;;
3849;SDS011;1940;51.052;13.678;2022-07-30T10:12:44;10.90;;;8.20;;
3849;SDS011;1940;51.052;13.678;2022-07-30T10:15:10;12.73;;;8.80;;
3849;SDS011;1940;51.052;13.678;2022-07-30T10:17:37;10.77;;;8.50;;
3849;SDS011;1940;51.052;13.678;2022-07-30T10:20:04;13.90;;;8.30;;
3849;SDS011;1940;51.052;13.678;2022-07-30T10:22:33;11.17;;;8.90;;
3849;SDS011;1940;51.052;13.678;2022-07-30T10:25:00;13.10;;;9.40;;
3849;SDS011;1940;51.052;13.678;2022-07-30T10:27:27;11.07;;;8.20;;
3849;SDS011;1940;51.052;13.678;2022-07-30T10:29:52;12.07;;;8.97;;
3849;SDS011;1940;51.052;13.678;2022-07-30T10:32:19;13.23;;;9.20;;
3849;SDS011;1940;51.052;13.678;2022-07-30T10:34:45;11.03;;;8.37;;
3849;SDS011;1940;51.052;13.678;2022-07-30T10:37:11;13.87;;;8.33;;
3849;SDS011;1940;51.052;13.678;2022-07-30T10:39:44;11.67;;;8.87;;
3849;SDS011;1940;51.052;13.678;2022-07-30T10:45:32;12.70;;;8.67;;
3849;SDS011;1940;51.052;13.678;2022-07-30T10:48:19;16.67;;;9.80;;
3849;SDS011;1940;51.052;13.678;2022-07-30T10:50:53;15.17;;;9.33;;
3849;SDS011;1940;51.052;13.678;2022-07-30T10:53:36;11.03;;;7.97;;
3849;SDS011;1940;51.052;13.678;2022-07-30T10:56:10;11.77;;;8.70;;
3849;SDS011;1940;51.052;13.678;2022-07-30T11:06:50;12.33;;;9.00;;
3849;SDS011;1940;51.052;13.678;2022-07-30T11:09:37;13.83;;;8.53;;
3849;SDS011;1940;51.052;13.678;2022-07-30T11:12:07;10.33;;;7.70;;
3849;SDS011;1940;51.052;13.678;2022-07-30T11:17:17;12.47;;;8.47;;
3849;SDS011;1940;51.052;13.678;2022-07-30T11:22:37;9.37;;;7.80;;
3849;SDS011;1940;51.052;13.678;2022-07-30T11:25:05;11.27;;;8.10;;
3849;SDS011;1940;51.052;13.678;2022-07-30T11:27:39;10.30;;;8.30;;
3849;SDS011;1940;51.052;13.678;2022-07-30T11:32:45;12.63;;;7.50;;
3849;SDS011;1940;51.052;13.678;2022-07-30T11:35:22;11.07;;;7.87;;
3849;SDS011;1940;51.052;13.678;2022-07-30T11:40:33;10.00;;;7.87;;
3849;SDS011;1940;51.052;13.678;2022-07-30T11:43:33;8.77;;;7.80;;
3849;SDS011;1940;51.052;13.678;2022-07-30T11:48:32;7.67;;;6.37;;
3849;SDS011;1940;51.052;13.678;2022-07-30T11:50:58;8.93;;;6.80;;
3849;SDS011;1940;51.052;13.678;2022-07-30T11:53:24;11.77;;;6.90;;
3849;SDS011;1940;51.052;13.678;2022-07-30T11:55:51;9.13;;;6.47;;
3849;SDS011;1940;51.052;13.678;2022-07-30T12:00:59;9.63;;;6.27;;
3849;SDS011;1940;51.052;13.678;2022-07-30T12:03:28;13.63;;;6.10;;
3849;SDS011;1940;51.052;13.678;2022-07-30T12:06:04;11.73;;;5.50;;
3849;SDS011;1940;51.052;13.678;2022-07-30T12:08:49;14.70;;;5.43;;
3849;SDS011;1940;51.052;13.678;2022-07-30T12:11:16;6.70;;;5.10;;
3849;SDS011;1940;51.052;13.678;2022-07-30T12:13:42;19.13;;;5.07;;
3849;SDS011;1940;51.052;13.678;2022-07-30T12:16:18;11.70;;;5.60;;
3849;SDS011;1940;51.052;13.678;2022-07-30T12:18:45;8.07;;;5.80;;
3849;SDS011;1940;51.052;13.678;2022-07-30T12:21:11;11.27;;;5.67;;
3849;SDS011;1940;51.052;13.678;2022-07-30T12:23:41;10.33;;;6.27;;
3849;SDS011;1940;51.052;13.678;2022-07-30T12:26:21;8.60;;;6.20;;
3849;SDS011;1940;51.052;13.678;2022-07-30T12:28:54;9.10;;;5.63;;
3849;SDS011;1940;51.052;13.678;2022-07-30T12:31:21;9.47;;;6.30;;
3849;SDS011;1940;51.052;13.678;2022-07-30T12:33:47;11.13;;;7.40;;
3849;SDS011;1940;51.052;13.678;2022-07-30T12:36:29;8.27;;;7.27;;
3849;SDS011;1940;51.052;13.678;2022-07-30T12:38:57;7.43;;;6.57;;
3849;SDS011;1940;51.052;13.678;2022-07-30T12:41:43;12.73;;;6.80;;
3849;SDS011;1940;51.052;13.678;2022-07-30T12:44:24;10.13;;;6.57;;
3849;SDS011;1940;51.052;13.678;2022-07-30T12:46:58;12.90;;;8.17;;
3849;SDS011;1940;51.052;13.678;2022-07-30T12:49:30;9.20;;;6.67;;
3849;SDS011;1940;51.052;13.678;2022-07-30T12:51:57;10.00;;;6.13;;
3849;SDS011;1940;51.052;13.678;2022-07-30T12:54:23;11.30;;;6.63;;
3849;SDS011;1940;51.052;13.678;2022-07-30T12:56:59;8.80;;;6.70;;
3849;SDS011;1940;51.052;13.678;2022-07-30T12:59:26;14.73;;;6.60;;
3849;SDS011;1940;51.052;13.678;2022-07-30T13:01:53;9.07;;;6.13;;
3849;SDS011;1940;51.052;13.678;2022-07-30T13:04:21;8.90;;;6.80;;
3849;SDS011;1940;51.052;13.678;2022-07-30T13:07:06;8.77;;;6.40;;
3849;SDS011;1940;51.052;13.678;2022-07-30T13:09:32;10.60;;;6.90;;
3849;SDS011;1940;51.052;13.678;2022-07-30T13:11:58;9.50;;;6.30;;
3849;SDS011;1940;51.052;13.678;2022-07-30T13:14:23;9.50;;;6.53;;
3849;SDS011;1940;51.052;13.678;2022-07-30T13:16:49;9.00;;;6.63;;
3849;SDS011;1940;51.052;13.678;2022-07-30T13:19:17;8.30;;;6.40;;
3849;SDS011;1940;51.052;13.678;2022-07-30T13:21:42;13.13;;;6.70;;
3849;SDS011;1940;51.052;13.678;2022-07-30T13:24:08;14.53;;;7.43;;
3849;SDS011;1940;51.052;13.678;2022-07-30T13:26:34;10.10;;;6.80;;
3849;SDS011;1940;51.052;13.678;2022-07-30T13:29:00;10.97;;;6.77;;
3849;SDS011;1940;51.052;13.678;2022-07-30T13:31:27;10.50;;;6.97;;
3849;SDS011;1940;51.052;13.678;2022-07-30T13:33:53;11.53;;;7.30;;
3849;SDS011;1940;51.052;13.678;2022-07-30T13:36:18;13.77;;;7.60;;
3849;SDS011;1940;51.052;13.678;2022-07-30T13:38:44;12.63;;;7.40;;
3849;SDS011;1940;51.052;13.678;2022-07-30T13:41:10;12.90;;;7.70;;
3849;SDS011;1940;51.052;13.678;2022-07-30T13:43:36;11.20;;;7.80;;
3849;SDS011;1940;51.052;13.678;2022-07-30T13:46:03;9.40;;;7.00;;
3849;SDS011;1940;51.052;13.678;2022-07-30T13:48:29;13.60;;;8.03;;
3849;SDS011;1940;51.052;13.678;2022-07-30T13:50:55;9.77;;;7.10;;
3849;SDS011;1940;51.052;13.678;2022-07-30T13:53:21;11.23;;;7.30;;
3849;SDS011;1940;51.052;13.678;2022-07-30T13:55:49;15.10;;;8.40;;
3849;SDS011;1940;51.052;13.678;2022-07-30T13:58:15;8.23;;;6.73;;
3849;SDS011;1940;51.052;13.678;2022-07-30T14:00:41;8.87;;;7.23;;
3849;SDS011;1940;51.052;13.678;2022-07-30T14:03:09;10.80;;;8.60;;
3849;SDS011;1940;51.052;13.678;2022-07-30T14:05:35;12.07;;;7.87;;
3849;SDS011;1940;51.052;13.678;2022-07-30T14:08:02;11.00;;;8.33;;
3849;SDS011;1940;51.052;13.678;2022-07-30T14:10:28;8.77;;;7.60;;
3849;SDS011;1940;51.052;13.678;2022-07-30T14:12:55;10.27;;;7.23;;
3849;SDS011;1940;51.052;13.678;2022-07-30T14:15:22;11.90;;;7.50;;
3849;SDS011;1940;51.052;13.678;2022-07-30T14:17:48;9.80;;;6.90;;
3849;SDS011;1940;51.052;13.678;2022-07-30T14:20:15;7.93;;;5.83;;
3849;SDS011;1940;51.052;13.678;2022-07-30T14:22:41;9.83;;;6.83;;
3849;SDS011;1940;51.052;13.678;2022-07-30T14:25:07;7.67;;;6.40;;
3849;SDS011;1940;51.052;13.678;2022-07-30T14:27:33;11.10;;;6.50;;
3849;SDS011;1940;51.052;13.678;2022-07-30T14:29:59;7.83;;;6.10;;
3849;SDS011;1940;51.052;13.678;2022-07-30T14:32:24;11.37;;;6.10;;
3849;SDS011;1940;51.052;13.678;2022-07-30T14:34:50;8.20;;;5.60;;
3849;SDS011;1940;51.052;13.678;2022-07-30T14:37:16;7.33;;;6.10;;
3849;SDS011;1940;51.052;13.678;2022-07-30T14:39:42;8.67;;;6.47;;
3849;SDS011;1940;51.052;13.678;2022-07-30T14:42:07;7.00;;;6.07;;
3849;SDS011;1940;51.052;13.678;2022-07-30T14:44:33;8.27;;;5.97;;
3849;SDS011;1940;51.052;13.678;2022-07-30T14:46:59;8.00;;;5.87;;
3849;SDS011;1940;51.052;13.678;2022-07-30T14:49:24;12.33;;;6.47;;
3849;SDS011;1940;51.052;13.678;2022-07-30T14:51:50;9.60;;;6.83;;
3849;SDS011;1940;51.052;13.678;2022-07-30T14:54:16;11.73;;;6.40;;
3849;SDS011;1940;51.052;13.678;2022-07-30T14:56:42;8.80;;;6.63;;
3849;SDS011;1940;51.052;13.678;2022-07-30T14:59:08;7.27;;;6.07;;
3849;SDS011;1940;51.052;13.678;2022-07-30T15:01:33;9.43;;;6.80;;
3849;SDS011;1940;51.052;13.678;2022-07-30T15:03:59;14.70;;;7.50;;
3849;SDS011;1940;51.052;13.678;2022-07-30T15:06:25;8.93;;;5.80;;
3849;SDS011;1940;51.052;13.678;2022-07-30T15:08:51;6.40;;;5.50;;
3849;SDS011;1940;51.052;13.678;2022-07-30T15:11:17;7.10;;;5.40;;
3849;SDS011;1940;51.052;13.678;2022-07-30T15:13:43;8.80;;;5.20;;
3849;SDS011;1940;51.052;13.678;2022-07-30T15:16:08;6.90;;;5.20;;
3849;SDS011;1940;51.052;13.678;2022-07-30T15:18:34;9.90;;;5.70;;
3849;SDS011;1940;51.052;13.678;2022-07-30T15:21:00;9.90;;;5.37;;
3849;SDS011;1940;51.052;13.678;2022-07-30T15:23:26;8.80;;;5.33;;
3849;SDS011;1940;51.052;13.678;2022-07-30T15:25:52;6.60;;;5.30;;
3849;SDS011;1940;51.052;13.678;2022-07-30T15:28:18;7.33;;;4.97;;
3849;SDS011;1940;51.052;13.678;2022-07-30T15:30:44;9.60;;;5.40;;